sensor_id;sensor_type;location;lat;lon;timestamp;pressure;altitude;pressure_sealevel;temperature;humidity
12987;BME280;58897;51.960;5.582;2022-12-29T00:02:19;99730.72;;;10.04;100.00
12987;BME280;58897;51.960;5.582;2022-12-29T00:04:46;99720.56;;;10.06;100.00
12987;BME280;58897;51.960;5.582;2022-12-29T00:07:12;99706.81;;;10.01;100.00
12987;BME280;58897;51.960;5.582;2022-12-29T00:09:39;99711.44;;;10.07;100.00
12987;BME280;58897;51.960;5.582;2022-12-29T00:12:06;99698.97;;;10.06;100.00
12987;BME280;58897;51.960;5.582;2022-12-29T00:14:32;99711.25;;;10.08;100.00
12987;BME280;58897;51.960;5.582;2022-12-29T00:17:17;99695.63;;;10.04;100.00
12987;BME280;58897;51.960;5.582;2022-12-29T00:19:44;99703.06;;;10.02;100.00
12987;BME280;58897;51.960;5.582;2022-12-29T00:22:29;99701.69;;;10.06;100.00
12987;BME280;58897;51.960;5.582;2022-12-29T00:25:14;99688.94;;;10.00;100.00
12987;BME280;58897;51.960;5.582;2022-12-29T00:28:00;99694.88;;;10.10;100.00
12987;BME280;58897;51.960;5.582;2022-12-29T00:30:45;99686.50;;;10.05;100.00
12987;BME280;58897;51.960;5.582;2022-12-29T00:33:32;99681.09;;;10.05;100.00
12987;BME280;58897;51.960;5.582;2022-12-29T00:36:25;99684.84;;;10.04;100.00
12987;BME280;58897;51.960;5.582;2022-12-29T00:39:00;99668.94;;;10.09;100.00
12987;BME280;58897;51.960;5.582;2022-12-29T00:41:47;99682.53;;;10.15;100.00
12987;BME280;58897;51.960;5.582;2022-12-29T00:44:33;99681.56;;;10.08;100.00
12987;BME280;58897;51.960;5.582;2022-12-29T00:46:59;99670.50;;;10.03;100.00
12987;BME280;58897;51.960;5.582;2022-12-29T00:49:31;99660.94;;;10.01;100.00
12987;BME280;58897;51.960;5.582;2022-12-29T00:52:02;99664.28;;;10.03;100.00
12987;BME280;58897;51.960;5.582;2022-12-29T00:54:31;99654.97;;;10.05;100.00
12987;BME280;58897;51.960;5.582;2022-12-29T00:56:59;99651.25;;;10.06;100.00
12987;BME280;58897;51.960;5.582;2022-12-29T00:59:26;99642.59;;;10.11;100.00
12987;BME280;58897;51.960;5.582;2022-12-29T01:01:53;99638.41;;;10.08;100.00
12987;BME280;58897;51.960;5.582;2022-12-29T01:04:22;99656.75;;;10.13;100.00
12987;BME280;58897;51.960;5.582;2022-12-29T01:06:49;99633.66;;;10.10;100.00
12987;BME280;58897;51.960;5.582;2022-12-29T01:09:17;99630.75;;;10.12;100.00
12987;BME280;58897;51.960;5.582;2022-12-29T01:12:04;99629.66;;;10.06;100.00
12987;BME280;58897;51.960;5.582;2022-12-29T01:14:31;99637.09;;;10.04;100.00
12987;BME280;58897;51.960;5.582;2022-12-29T01:16:57;99620.25;;;10.02;100.00
12987;BME280;58897;51.960;5.582;2022-12-29T01:19:25;99618.72;;;9.93;100.00
12987;BME280;58897;51.960;5.582;2022-12-29T01:21:52;99622.06;;;9.95;100.00
12987;BME280;58897;51.960;5.582;2022-12-29T01:24:20;99629.31;;;9.94;100.00
12987;BME280;58897;51.960;5.582;2022-12-29T01:26:46;99626.59;;;9.94;100.00
12987;BME280;58897;51.960;5.582;2022-12-29T01:29:14;99623.25;;;9.92;100.00
12987;BME280;58897;51.960;5.582;2022-12-29T01:31:41;99643.16;;;9.91;100.00
12987;BME280;58897;51.960;5.582;2022-12-29T01:34:07;99624.91;;;9.93;100.00
12987;BME280;58897;51.960;5.582;2022-12-29T01:36:34;99613.13;;;9.94;100.00
12987;BME280;58897;51.960;5.582;2022-12-29T01:39:00;99604.56;;;9.91;100.00
12987;BME280;58897;51.960;5.582;2022-12-29T01:41:27;99609.94;;;9.91;100.00
12987;BME280;58897;51.960;5.582;2022-12-29T01:43:56;99611.38;;;9.87;100.00
12987;BME280;58897;51.960;5.582;2022-12-29T01:46:30;99612.22;;;9.87;100.00
12987;BME280;58897;51.960;5.582;2022-12-29T01:49:07;99607.19;;;9.84;100.00
12987;BME280;58897;51.960;5.582;2022-12-29T01:51:44;99622.72;;;9.82;100.00
12987;BME280;58897;51.960;5.582;2022-12-29T01:54:16;99615.84;;;9.80;100.00
12987;BME280;58897;51.960;5.582;2022-12-29T01:56:46;99618.53;;;9.80;100.00
12987;BME280;58897;51.960;5.582;2022-12-29T01:59:18;99629.13;;;9.81;100.00
12987;BME280;58897;51.960;5.582;2022-12-29T02:01:48;99623.38;;;9.84;100.00
12987;BME280;58897;51.960;5.582;2022-12-29T02:04:16;99626.06;;;9.84;100.00
12987;BME280;58897;51.960;5.582;2022-12-29T02:06:49;99641.69;;;9.89;100.00
12987;BME280;58897;51.960;5.582;2022-12-29T02:09:18;99647.00;;;9.82;100.00
12987;BME280;58897;51.960;5.582;2022-12-29T02:11:45;99638.13;;;9.88;100.00
12987;BME280;58897;51.960;5.582;2022-12-29T02:14:13;99638.59;;;9.92;100.00
12987;BME280;58897;51.960;5.582;2022-12-29T02:16:57;99625.03;;;9.85;100.00
12987;BME280;58897;51.960;5.582;2022-12-29T02:31:23;99611.09;;;9.67;100.00
12987;BME280;58897;51.960;5.582;2022-12-29T02:34:07;99616.13;;;9.56;100.00
12987;BME280;58897;51.960;5.582;2022-12-29T02:36:46;99633.41;;;9.47;100.00
12987;BME280;58897;51.960;5.582;2022-12-29T02:39:21;99654.31;;;9.45;100.00
12987;BME280;58897;51.960;5.582;2022-12-29T02:42:03;99646.16;;;9.38;100.00
12987;BME280;58897;51.960;5.582;2022-12-29T02:44:50;99623.75;;;9.38;100.00
12987;BME280;58897;51.960;5.582;2022-12-29T02:50:27;99623.75;;;9.52;100.00
12987;BME280;58897;51.960;5.582;2022-12-29T02:53:00;99633.53;;;9.53;100.00
12987;BME280;58897;51.960;5.582;2022-12-29T02:55:27;99627.38;;;9.59;100.00
12987;BME280;58897;51.960;5.582;2022-12-29T03:12:03;99609.72;;;9.57;100.00
12987;BME280;58897;51.960;5.582;2022-12-29T03:14:45;99605.25;;;9.64;100.00
12987;BME280;58897;51.960;5.582;2022-12-29T03:17:40;99617.41;;;9.60;100.00
12987;BME280;58897;51.960;5.582;2022-12-29T03:20:17;99612.69;;;9.62;100.00
12987;BME280;58897;51.960;5.582;2022-12-29T03:22:47;99605.63;;;9.61;100.00
12987;BME280;58897;51.960;5.582;2022-12-29T03:25:18;99607.19;;;9.55;100.00
12987;BME280;58897;51.960;5.582;2022-12-29T03:27:56;99608.41;;;9.53;100.00
12987;BME280;58897;51.960;5.582;2022-12-29T03:30:24;99606.19;;;9.56;100.00
12987;BME280;58897;51.960;5.582;2022-12-29T03:32:55;99606.34;;;9.55;100.00
12987;BME280;58897;51.960;5.582;2022-12-29T03:35:26;99597.63;;;9.53;100.00
12987;BME280;58897;51.960;5.582;2022-12-29T03:37:59;99597.44;;;9.54;100.00
12987;BME280;58897;51.960;5.582;2022-12-29T03:40:29;99602.19;;;9.52;100.00
12987;BME280;58897;51.960;5.582;2022-12-29T03:42:58;99602.94;;;9.61;100.00
12987;BME280;58897;51.960;5.582;2022-12-29T03:45:24;99584.78;;;9.55;100.00
12987;BME280;58897;51.960;5.582;2022-12-29T03:47:53;99585.34;;;9.50;100.00
12987;BME280;58897;51.960;5.582;2022-12-29T03:50:19;99591.59;;;9.51;100.00
12987;BME280;58897;51.960;5.582;2022-12-29T03:52:46;99582.28;;;9.53;100.00
12987;BME280;58897;51.960;5.582;2022-12-29T03:55:12;99593.44;;;9.50;100.00
12987;BME280;58897;51.960;5.582;2022-12-29T03:57:39;99587.84;;;9.52;100.00
12987;BME280;58897;51.960;5.582;2022-12-29T04:00:06;99585.34;;;9.50;100.00
12987;BME280;58897;51.960;5.582;2022-12-29T04:02:33;99584.72;;;9.48;100.00
12987;BME280;58897;51.960;5.582;2022-12-29T04:05:00;99584.78;;;9.55;100.00
12987;BME280;58897;51.960;5.582;2022-12-29T04:07:27;99576.81;;;9.61;100.00
12987;BME280;58897;51.960;5.582;2022-12-29T04:09:53;99578.88;;;9.59;100.00
12987;BME280;58897;51.960;5.582;2022-12-29T04:12:20;99576.44;;;9.64;100.00
12987;BME280;58897;51.960;5.582;2022-12-29T04:14:46;99583.94;;;9.69;100.00
12987;BME280;58897;51.960;5.582;2022-12-29T04:17:13;99575.03;;;9.68;100.00
12987;BME280;58897;51.960;5.582;2022-12-29T04:19:40;99579.56;;;9.68;100.00
12987;BME280;58897;51.960;5.582;2022-12-29T04:22:06;99580.16;;;9.63;100.00
12987;BME280;58897;51.960;5.582;2022-12-29T04:24:33;99593.25;;;9.66;100.00
12987;BME280;58897;51.960;5.582;2022-12-29T04:26:59;99588.59;;;9.75;100.00
12987;BME280;58897;51.960;5.582;2022-12-29T04:29:26;99581.81;;;9.64;100.00
12987;BME280;58897;51.960;5.582;2022-12-29T04:31:52;99582.19;;;9.61;100.00
12987;BME280;58897;51.960;5.582;2022-12-29T04:34:19;99603.41;;;9.64;100.00
12987;BME280;58897;51.960;5.582;2022-12-29T04:36:45;99595.31;;;9.64;100.00
12987;BME280;58897;51.960;5.582;2022-12-29T04:39:12;99594.09;;;9.67;100.00
12987;BME280;58897;51.960;5.582;2022-12-29T04:41:39;99595.84;;;9.60;100.00
12987;BME280;58897;51.960;5.582;2022-12-29T04:44:06;99600.53;;;9.51;100.00
12987;BME280;58897;51.960;5.582;2022-12-29T04:46:32;99597.53;;;9.61;100.00
12987;BME280;58897;51.960;5.582;2022-12-29T04:48:59;99600.13;;;9.54;100.00
12987;BME280;58897;51.960;5.582;2022-12-29T04:51:30;99607.13;;;9.49;100.00
12987;BME280;58897;51.960;5.582;2022-12-29T04:53:57;99611.41;;;9.43;100.00
12987;BME280;58897;51.960;5.582;2022-12-29T04:56:24;99615.47;;;9.39;100.00
12987;BME280;58897;51.960;5.582;2022-12-29T04:58:50;99615.84;;;9.36;100.00
12987;BME280;58897;51.960;5.582;2022-12-29T05:01:17;99616.69;;;9.37;100.00
12987;BME280;58897;51.960;5.582;2022-12-29T05:03:44;99625.59;;;9.37;100.00
12987;BME280;58897;51.960;5.582;2022-12-29T05:06:10;99622.72;;;9.39;100.00
12987;BME280;58897;51.960;5.582;2022-12-29T05:08:37;99635.94;;;9.48;100.00
12987;BME280;58897;51.960;5.582;2022-12-29T05:11:04;99633.97;;;9.42;100.00
12987;BME280;58897;51.960;5.582;2022-12-29T05:13:31;99637.50;;;9.43;100.00
12987;BME280;58897;51.960;5.582;2022-12-29T05:15:58;99639.44;;;9.34;100.00
12987;BME280;58897;51.960;5.582;2022-12-29T05:18:27;99632.47;;;9.25;100.00
12987;BME280;58897;51.960;5.582;2022-12-29T05:20:54;99635.06;;;9.18;100.00
12987;BME280;58897;51.960;5.582;2022-12-29T05:23:20;99633.69;;;9.22;100.00
12987;BME280;58897;51.960;5.582;2022-12-29T05:25:47;99625.97;;;9.19;100.00
12987;BME280;58897;51.960;5.582;2022-12-29T05:28:13;99634.28;;;9.10;100.00
12987;BME280;58897;51.960;5.582;2022-12-29T05:30:40;99641.44;;;9.03;100.00
12987;BME280;58897;51.960;5.582;2022-12-29T05:33:07;99639.56;;;9.03;100.00
12987;BME280;58897;51.960;5.582;2022-12-29T05:35:33;99638.09;;;9.01;100.00
12987;BME280;58897;51.960;5.582;2022-12-29T05:38:00;99644.31;;;9.01;100.00
12987;BME280;58897;51.960;5.582;2022-12-29T05:40:26;99631.31;;;9.05;100.00
12987;BME280;58897;51.960;5.582;2022-12-29T05:42:53;99649.81;;;9.08;100.00
12987;BME280;58897;51.960;5.582;2022-12-29T05:45:19;99648.97;;;9.07;100.00
12987;BME280;58897;51.960;5.582;2022-12-29T05:47:46;99656.94;;;9.01;100.00
12987;BME280;58897;51.960;5.582;2022-12-29T05:50:12;99649.72;;;9.01;100.00
12987;BME280;58897;51.960;5.582;2022-12-29T05:52:39;99647.19;;;9.00;100.00
12987;BME280;58897;51.960;5.582;2022-12-29T05:55:06;99656.09;;;9.00;100.00
12987;BME280;58897;51.960;5.582;2022-12-29T05:57:33;99649.44;;;9.11;100.00
12987;BME280;58897;51.960;5.582;2022-12-29T05:59:59;99654.53;;;9.06;100.00
12987;BME280;58897;51.960;5.582;2022-12-29T06:02:26;99653.41;;;9.00;100.00
12987;BME280;58897;51.960;5.582;2022-12-29T06:04:53;99651.66;;;9.07;100.00
12987;BME280;58897;51.960;5.582;2022-12-29T06:07:19;99659.94;;;9.06;100.00
12987;BME280;58897;51.960;5.582;2022-12-29T06:09:46;99642.63;;;9.00;100.00
12987;BME280;58897;51.960;5.582;2022-12-29T06:12:12;99648.31;;;9.05;100.00
12987;BME280;58897;51.960;5.582;2022-12-29T06:14:39;99646.94;;;9.09;100.00
12987;BME280;58897;51.960;5.582;2022-12-29T06:17:06;99650.16;;;9.05;100.00
12987;BME280;58897;51.960;5.582;2022-12-29T06:19:32;99653.81;;;9.12;100.00
12987;BME280;58897;51.960;5.582;2022-12-29T06:21:59;99672.00;;;9.10;100.00
12987;BME280;58897;51.960;5.582;2022-12-29T06:24:25;99663.75;;;9.11;100.00
12987;BME280;58897;51.960;5.582;2022-12-29T06:26:52;99658.72;;;9.08;100.00
12987;BME280;58897;51.960;5.582;2022-12-29T06:29:18;99657.16;;;9.14;100.00
12987;BME280;58897;51.960;5.582;2022-12-29T06:31:46;99657.44;;;9.19;100.00
12987;BME280;58897;51.960;5.582;2022-12-29T06:34:13;99650.00;;;9.21;100.00
12987;BME280;58897;51.960;5.582;2022-12-29T06:36:40;99661.63;;;9.21;100.00
12987;BME280;58897;51.960;5.582;2022-12-29T06:39:06;99666.38;;;9.19;100.00
12987;BME280;58897;51.960;5.582;2022-12-29T06:41:33;99681.06;;;9.17;100.00
12987;BME280;58897;51.960;5.582;2022-12-29T06:43:59;99675.19;;;9.13;100.00
12987;BME280;58897;51.960;5.582;2022-12-29T06:46:26;99684.41;;;9.19;100.00
12987;BME280;58897;51.960;5.582;2022-12-29T06:48:52;99683.38;;;9.20;100.00
12987;BME280;58897;51.960;5.582;2022-12-29T06:51:19;99695.88;;;9.13;100.00
12987;BME280;58897;51.960;5.582;2022-12-29T06:53:45;99692.91;;;9.08;100.00
12987;BME280;58897;51.960;5.582;2022-12-29T06:56:12;99693.09;;;9.06;100.00
12987;BME280;58897;51.960;5.582;2022-12-29T06:58:38;99695.44;;;9.09;100.00
12987;BME280;58897;51.960;5.582;2022-12-29T07:01:05;99709.44;;;9.05;100.00
12987;BME280;58897;51.960;5.582;2022-12-29T07:03:31;99713.81;;;9.06;100.00
12987;BME280;58897;51.960;5.582;2022-12-29T07:05:58;99696.44;;;9.08;100.00
12987;BME280;58897;51.960;5.582;2022-12-29T07:08:25;99706.06;;;9.03;100.00
12987;BME280;58897;51.960;5.582;2022-12-29T07:10:51;99687.06;;;9.04;100.00
12987;BME280;58897;51.960;5.582;2022-12-29T07:13:18;99689.91;;;9.03;100.00
12987;BME280;58897;51.960;5.582;2022-12-29T07:15:45;99684.53;;;9.03;100.00
12987;BME280;58897;51.960;5.582;2022-12-29T07:18:11;99688.72;;;9.05;100.00
12987;BME280;58897;51.960;5.582;2022-12-29T07:20:38;99688.25;;;9.02;100.00
12987;BME280;58897;51.960;5.582;2022-12-29T07:23:05;99691.69;;;9.10;100.00
12987;BME280;58897;51.960;5.582;2022-12-29T07:25:31;99691.06;;;9.08;100.00
12987;BME280;58897;51.960;5.582;2022-12-29T07:27:58;99691.09;;;9.23;100.00
12987;BME280;58897;51.960;5.582;2022-12-29T07:30:24;99697.66;;;9.20;100.00
12987;BME280;58897;51.960;5.582;2022-12-29T07:32:51;99689.44;;;9.22;100.00
12987;BME280;58897;51.960;5.582;2022-12-29T07:35:17;99698.72;;;9.19;100.00
12987;BME280;58897;51.960;5.582;2022-12-29T07:37:44;99722.97;;;9.19;100.00
12987;BME280;58897;51.960;5.582;2022-12-29T07:40:11;99724.53;;;9.14;100.00
12987;BME280;58897;51.960;5.582;2022-12-29T07:42:37;99736.19;;;9.06;100.00
12987;BME280;58897;51.960;5.582;2022-12-29T07:45:04;99738.06;;;9.06;100.00
12987;BME280;58897;51.960;5.582;2022-12-29T07:47:31;99744.94;;;9.08;100.00
12987;BME280;58897;51.960;5.582;2022-12-29T07:49:58;99765.63;;;9.08;100.00
12987;BME280;58897;51.960;5.582;2022-12-29T07:52:24;99765.03;;;8.98;100.00
12987;BME280;58897;51.960;5.582;2022-12-29T07:54:51;99753.47;;;8.89;100.00
12987;BME280;58897;51.960;5.582;2022-12-29T07:57:18;99749.53;;;9.00;100.00
12987;BME280;58897;51.960;5.582;2022-12-29T07:59:44;99754.47;;;8.96;100.00
12987;BME280;58897;51.960;5.582;2022-12-29T08:02:11;99739.59;;;9.00;100.00
12987;BME280;58897;51.960;5.582;2022-12-29T08:04:38;99736.06;;;9.00;100.00
12987;BME280;58897;51.960;5.582;2022-12-29T08:07:05;99737.56;;;9.02;100.00
12987;BME280;58897;51.960;5.582;2022-12-29T08:09:31;99736.97;;;9.15;100.00
12987;BME280;58897;51.960;5.582;2022-12-29T08:11:58;99729.56;;;9.17;100.00
12987;BME280;58897;51.960;5.582;2022-12-29T08:14:24;99724.53;;;9.14;100.00
12987;BME280;58897;51.960;5.582;2022-12-29T08:16:51;99723.97;;;9.18;100.00
12987;BME280;58897;51.960;5.582;2022-12-29T08:19:17;99705.31;;;9.31;100.00
12987;BME280;58897;51.960;5.582;2022-12-29T08:21:44;99720.66;;;9.31;100.00
12987;BME280;58897;51.960;5.582;2022-12-29T08:24:10;99727.00;;;9.38;100.00
12987;BME280;58897;51.960;5.582;2022-12-29T08:26:37;99720.94;;;9.36;100.00
12987;BME280;58897;51.960;5.582;2022-12-29T08:29:04;99731.06;;;9.34;100.00
12987;BME280;58897;51.960;5.582;2022-12-29T08:31:31;99732.94;;;9.33;100.00
12987;BME280;58897;51.960;5.582;2022-12-29T08:33:57;99720.94;;;9.36;100.00
12987;BME280;58897;51.960;5.582;2022-12-29T08:36:24;99734.06;;;9.39;100.00
12987;BME280;58897;51.960;5.582;2022-12-29T08:38:50;99738.94;;;9.44;100.00
12987;BME280;58897;51.960;5.582;2022-12-29T08:41:17;99742.63;;;9.43;100.00
12987;BME280;58897;51.960;5.582;2022-12-29T08:43:48;99737.25;;;9.43;100.00
12987;BME280;58897;51.960;5.582;2022-12-29T08:46:14;99736.09;;;9.37;100.00
12987;BME280;58897;51.960;5.582;2022-12-29T08:48:41;99741.13;;;9.40;100.00
12987;BME280;58897;51.960;5.582;2022-12-29T08:51:08;99738.16;;;9.35;100.00
12987;BME280;58897;51.960;5.582;2022-12-29T08:53:35;99729.31;;;9.41;100.00
12987;BME280;58897;51.960;5.582;2022-12-29T08:56:02;99732.00;;;9.41;100.00
12987;BME280;58897;51.960;5.582;2022-12-29T08:58:31;99745.97;;;9.45;100.00
12987;BME280;58897;51.960;5.582;2022-12-29T09:00:59;99729.88;;;9.37;100.00
12987;BME280;58897;51.960;5.582;2022-12-29T09:03:26;99734.97;;;9.31;100.00
12987;BME280;58897;51.960;5.582;2022-12-29T09:06:15;99742.28;;;9.23;100.00
12987;BME280;58897;51.960;5.582;2022-12-29T09:08:42;99752.97;;;9.16;100.00
12987;BME280;58897;51.960;5.582;2022-12-29T09:11:18;99754.94;;;9.22;100.00
12987;BME280;58897;51.960;5.582;2022-12-29T09:13:45;99756.59;;;9.23;100.00
12987;BME280;58897;51.960;5.582;2022-12-29T09:16:14;99749.72;;;9.21;100.00
12987;BME280;58897;51.960;5.582;2022-12-29T09:18:41;99749.34;;;9.24;100.00
12987;BME280;58897;51.960;5.582;2022-12-29T09:21:10;99751.41;;;9.22;100.00
12987;BME280;58897;51.960;5.582;2022-12-29T09:23:37;99775.28;;;9.25;100.00
12987;BME280;58897;51.960;5.582;2022-12-29T09:26:04;99770.38;;;9.28;100.00
12987;BME280;58897;51.960;5.582;2022-12-29T09:28:31;99770.38;;;9.28;100.00
12987;BME280;58897;51.960;5.582;2022-12-29T09:30:58;99780.63;;;9.33;100.00
12987;BME280;58897;51.960;5.582;2022-12-29T09:33:25;99787.38;;;9.29;100.00
12987;BME280;58897;51.960;5.582;2022-12-29T09:35:54;99770.91;;;9.24;100.00
12987;BME280;58897;51.960;5.582;2022-12-29T09:38:21;99785.59;;;9.21;100.00
12987;BME280;58897;51.960;5.582;2022-12-29T09:40:59;99797.91;;;9.16;100.00
12987;BME280;58897;51.960;5.582;2022-12-29T09:46:28;99816.19;;;9.06;100.00
12987;BME280;58897;51.960;5.582;2022-12-29T09:51:52;99831.44;;;8.91;100.00
12987;BME280;58897;51.960;5.582;2022-12-29T09:54:24;99844.28;;;8.81;100.00
12987;BME280;58897;51.960;5.582;2022-12-29T09:56:52;99838.38;;;8.77;100.00
12987;BME280;58897;51.960;5.582;2022-12-29T10:23:42;99883.38;;;8.60;100.00
12987;BME280;58897;51.960;5.582;2022-12-29T10:26:14;99906.59;;;8.61;100.00
12987;BME280;58897;51.960;5.582;2022-12-29T10:28:48;99898.22;;;8.56;100.00
12987;BME280;58897;51.960;5.582;2022-12-29T10:31:22;99896.53;;;8.55;100.00
12987;BME280;58897;51.960;5.582;2022-12-29T10:33:53;99908.47;;;8.53;100.00
12987;BME280;58897;51.960;5.582;2022-12-29T10:36:35;99919.94;;;8.47;100.00
12987;BME280;58897;51.960;5.582;2022-12-29T10:39:46;99911.69;;;8.48;100.00
12987;BME280;58897;51.960;5.582;2022-12-29T10:42:35;99936.91;;;8.47;100.00
12987;BME280;58897;51.960;5.582;2022-12-29T10:45:04;99951.22;;;8.48;100.00
12987;BME280;58897;51.960;5.582;2022-12-29T10:47:35;99956.94;;;8.53;100.00
12987;BME280;58897;51.960;5.582;2022-12-29T10:50:04;99945.50;;;8.51;100.00
12987;BME280;58897;51.960;5.582;2022-12-29T10:52:32;99962.16;;;8.54;100.00
12987;BME280;58897;51.960;5.582;2022-12-29T10:55:03;99944.97;;;8.55;100.00
12987;BME280;58897;51.960;5.582;2022-12-29T10:57:41;99964.44;;;8.74;100.00
12987;BME280;58897;51.960;5.582;2022-12-29T11:00:21;99966.66;;;8.70;100.00
12987;BME280;58897;51.960;5.582;2022-12-29T11:03:00;99959.78;;;8.67;100.00
12987;BME280;58897;51.960;5.582;2022-12-29T11:08:03;99980.56;;;8.90;100.00
12987;BME280;58897;51.960;5.582;2022-12-29T11:10:39;99984.44;;;8.87;100.00
12987;BME280;58897;51.960;5.582;2022-12-29T11:13:15;99989.50;;;8.82;100.00
12987;BME280;58897;51.960;5.582;2022-12-29T11:15:49;99986.50;;;8.77;100.00
12987;BME280;58897;51.960;5.582;2022-12-29T11:18:25;99997.09;;;8.79;100.00
12987;BME280;58897;51.960;5.582;2022-12-29T11:20:57;99981.94;;;8.86;100.00
12987;BME280;58897;51.960;5.582;2022-12-29T11:23:37;99998.97;;;8.78;100.00
12987;BME280;58897;51.960;5.582;2022-12-29T11:28:38;100006.84;;;8.88;100.00
12987;BME280;58897;51.960;5.582;2022-12-29T11:31:07;100014.28;;;8.78;100.00
12987;BME280;58897;51.960;5.582;2022-12-29T11:33:38;100016.31;;;8.76;100.00
12987;BME280;58897;51.960;5.582;2022-12-29T11:36:10;100027.88;;;8.76;100.00
12987;BME280;58897;51.960;5.582;2022-12-29T11:38:54;100011.53;;;8.94;100.00
12987;BME280;58897;51.960;5.582;2022-12-29T11:41:31;100015.75;;;8.88;100.00
12987;BME280;58897;51.960;5.582;2022-12-29T11:44:01;100022.63;;;8.99;100.00
12987;BME280;58897;51.960;5.582;2022-12-29T11:46:34;100020.09;;;8.97;100.00
12987;BME280;58897;51.960;5.582;2022-12-29T11:49:03;100022.97;;;8.96;100.00
12987;BME280;58897;51.960;5.582;2022-12-29T11:51:41;100018.78;;;8.93;100.00
12987;BME280;58897;51.960;5.582;2022-12-29T11:54:24;100021.28;;;8.95;100.00
12987;BME280;58897;51.960;5.582;2022-12-29T11:56:52;100012.34;;;8.94;100.00
12987;BME280;58897;51.960;5.582;2022-12-29T12:04:37;100030.16;;;9.19;100.00
12987;BME280;58897;51.960;5.582;2022-12-29T12:07:13;100038.66;;;10.01;100.00
12987;BME280;58897;51.960;5.582;2022-12-29T12:09:53;100016.94;;;9.71;100.00
12987;BME280;58897;51.960;5.582;2022-12-29T12:12:44;100014.03;;;9.42;100.00
12987;BME280;58897;51.960;5.582;2022-12-29T12:15:31;100028.09;;;9.29;100.00
12987;BME280;58897;51.960;5.582;2022-12-29T12:18:32;100036.47;;;9.35;100.00
12987;BME280;58897;51.960;5.582;2022-12-29T12:21:10;100014.16;;;9.57;100.00
12987;BME280;58897;51.960;5.582;2022-12-29T12:26:54;100032.28;;;9.93;100.00
12987;BME280;58897;51.960;5.582;2022-12-29T12:29:43;100032.53;;;9.84;100.00
12987;BME280;58897;51.960;5.582;2022-12-29T12:35:04;100028.91;;;11.41;100.00
12987;BME280;58897;51.960;5.582;2022-12-29T12:37:44;100022.00;;;10.94;100.00
12987;BME280;58897;51.960;5.582;2022-12-29T12:40:37;100011.03;;;10.59;100.00
12987;BME280;58897;51.960;5.582;2022-12-29T12:51:57;100050.41;;;9.85;100.00
12987;BME280;58897;51.960;5.582;2022-12-29T12:57:17;100039.03;;;9.67;100.00
12987;BME280;58897;51.960;5.582;2022-12-29T13:02:27;100054.06;;;9.61;100.00
12987;BME280;58897;51.960;5.582;2022-12-29T13:22:37;100078.41;;;9.37;100.00
12987;BME280;58897;51.960;5.582;2022-12-29T13:25:34;100067.28;;;9.40;100.00
12987;BME280;58897;51.960;5.582;2022-12-29T13:28:16;100071.81;;;9.48;100.00
12987;BME280;58897;51.960;5.582;2022-12-29T13:36:10;100076.25;;;9.32;100.00
12987;BME280;58897;51.960;5.582;2022-12-29T13:38:48;100071.72;;;9.33;100.00
12987;BME280;58897;51.960;5.582;2022-12-29T13:41:45;100101.19;;;9.26;100.00
12987;BME280;58897;51.960;5.582;2022-12-29T13:44:17;100097.84;;;9.24;100.00
12987;BME280;58897;51.960;5.582;2022-12-29T13:46:46;100094.47;;;9.22;100.00
12987;BME280;58897;51.960;5.582;2022-12-29T13:49:19;100093.31;;;9.09;100.00
12987;BME280;58897;51.960;5.582;2022-12-29T13:51:51;100099.06;;;9.06;100.00
12987;BME280;58897;51.960;5.582;2022-12-29T13:54:43;100094.00;;;9.11;100.00
12987;BME280;58897;51.960;5.582;2022-12-29T13:57:47;100094.16;;;9.17;100.00
12987;BME280;58897;51.960;5.582;2022-12-29T14:00:26;100101.06;;;9.12;100.00
12987;BME280;58897;51.960;5.582;2022-12-29T14:05:28;100106.63;;;9.02;100.00
12987;BME280;58897;51.960;5.582;2022-12-29T14:08:05;100096.56;;;8.96;100.00
12987;BME280;58897;51.960;5.582;2022-12-29T14:10:48;100102.78;;;8.97;100.00
12987;BME280;58897;51.960;5.582;2022-12-29T14:13:20;100115.91;;;8.92;100.00
12987;BME280;58897;51.960;5.582;2022-12-29T14:15:53;100121.28;;;8.92;100.00
12987;BME280;58897;51.960;5.582;2022-12-29T14:18:25;100116.94;;;8.91;100.00
12987;BME280;58897;51.960;5.582;2022-12-29T14:21:01;100120.09;;;8.94;100.00
12987;BME280;58897;51.960;5.582;2022-12-29T14:26:11;100143.34;;;8.79;100.00
12987;BME280;58897;51.960;5.582;2022-12-29T14:28:40;100139.13;;;8.68;100.00
12987;BME280;58897;51.960;5.582;2022-12-29T14:36:39;100128.38;;;8.60;100.00
12987;BME280;58897;51.960;5.582;2022-12-29T14:39:40;100132.59;;;8.55;100.00
12987;BME280;58897;51.960;5.582;2022-12-29T14:44:50;100138.31;;;8.52;100.00
12987;BME280;58897;51.960;5.582;2022-12-29T14:50:16;100142.50;;;8.46;100.00
12987;BME280;58897;51.960;5.582;2022-12-29T14:57:51;100146.38;;;8.44;100.00
12987;BME280;58897;51.960;5.582;2022-12-29T15:00:22;100156.63;;;8.40;100.00
12987;BME280;58897;51.960;5.582;2022-12-29T15:05:33;100145.19;;;8.38;100.00
12987;BME280;58897;51.960;5.582;2022-12-29T15:08:02;100157.97;;;8.36;100.00
12987;BME280;58897;51.960;5.582;2022-12-29T15:10:36;100153.91;;;8.32;100.00
12987;BME280;58897;51.960;5.582;2022-12-29T15:13:05;100151.88;;;8.26;100.00
12987;BME280;58897;51.960;5.582;2022-12-29T15:15:39;100152.56;;;8.28;100.00
12987;BME280;58897;51.960;5.582;2022-12-29T15:18:35;100155.72;;;8.24;100.00
12987;BME280;58897;51.960;5.582;2022-12-29T15:21:06;100160.13;;;8.33;100.00
12987;BME280;58897;51.960;5.582;2022-12-29T15:23:34;100159.28;;;8.32;100.00
12987;BME280;58897;51.960;5.582;2022-12-29T15:26:06;100150.56;;;8.30;100.00
12987;BME280;58897;51.960;5.582;2022-12-29T15:28:41;100153.25;;;8.30;100.00
12987;BME280;58897;51.960;5.582;2022-12-29T15:31:16;100155.59;;;8.33;100.00
12987;BME280;58897;51.960;5.582;2022-12-29T15:33:46;100159.16;;;8.34;100.00
12987;BME280;58897;51.960;5.582;2022-12-29T15:36:19;100154.94;;;8.31;100.00